MiSS Stacie — WDF5915 — position and weather

sailwx.info

Track history (hours):
 
Tides and Currents Weather Stations Pressure Air Temp Water Temp Dewpoint Dewpoint Depression Visibility Wind Speed Wind Dir Waves Ship Positions

MiSS Stacie

Owner: Crosby Marine Transportation LLC, Golden Meadow, LA. More information available from US FCC via Universal Licensing System and Coast Guard Vessel Documentation Center.

Last reported at 2014-Nov-26 19:30 UTC. Time now 2014-Nov-26 20:16 UTC.
Position N 29°35' W 090°36'.

Length 20 m; draft 2 m.

Type: Tug. MMSI: 367468640.

Date/timePositionNaut miles runAvg speedWind from/ knotsBaromVisibWave heightAir tempDewpointWater temp
2014-Nov-26 19:30N 29°35' W 090°36'4 4.7
2014-Nov-26 18:33N 29°36' W 090°41'18 4.3
2014-Nov-26 14:22N 29°37' W 091°02'4 5.1
2014-Nov-26 13:33N 29°38' W 091°06'2 2.5
2014-Nov-26 12:33N 29°40' W 091°08'0 0.1
2014-Nov-26 11:33N 29°40' W 091°08'2 2.4
2014-Nov-26 10:33N 29°41' W 091°11'3 2.8
2014-Nov-26 09:33N 29°40' W 091°14'0 0.1
2014-Nov-26 08:34N 29°40' W 091°14'3 2.7
2014-Nov-26 07:34N 29°39' W 091°17'5 4.5
2014-Nov-26 06:33N 29°39' W 091°22'7 5.2
2014-Nov-26 05:14N 29°41' W 091°29'4 5.7
2014-Nov-26 04:33N 29°43' W 091°33'12 1.2
2014-Nov-25 19:07N 29°38' W 091°21'4 8.0
2014-Nov-25 18:33N 29°39' W 091°16'2 2.0
2014-Nov-25 17:33N 29°40' W 091°14'0 0.0
2014-Nov-25 16:33N 29°40' W 091°14'0 0.0
2014-Nov-25 15:33N 29°40' W 091°14'0 0.0
2014-Nov-25 14:33N 29°40' W 091°14'0 0.0
2014-Nov-25 13:34N 29°40' W 091°14'0 0.0
2014-Nov-25 12:34N 29°40' W 091°14'0 0.0
2014-Nov-25 11:33N 29°40' W 091°14'0 0.0
2014-Nov-25 10:33N 29°40' W 091°14'0 0.0
2014-Nov-25 09:33N 29°40' W 091°14'0 0.0
2014-Nov-25 08:33N 29°40' W 091°14'0 0.0
2014-Nov-25 07:33N 29°40' W 091°14'0 0.0
2014-Nov-25 06:34N 29°40' W 091°14'2 1.8
2014-Nov-25 05:33N 29°39' W 091°16'4 4.4
2014-Nov-25 04:34N 29°38' W 091°21'6 5.9
2014-Nov-25 03:33N 29°40' W 091°27'5 4.6
2014-Nov-25 02:22N 29°43' W 091°33'9 2.0
2014-Nov-24 22:06N 29°39' W 091°24'4 7.5
2014-Nov-24 21:34N 29°38' W 091°19'5 5.0
2014-Nov-24 20:34N 29°40' W 091°14'5 4.9
2014-Nov-24 19:34N 29°40' W 091°08'0 0.0
2014-Nov-24 18:33N 29°40' W 091°08'0 0.0
2014-Nov-24 17:33N 29°40' W 091°08'0 0.0
2014-Nov-24 16:33N 29°40' W 091°08'0 0.0
2014-Nov-24 15:34N 29°40' W 091°08'0 0.0
2014-Nov-24 14:33N 29°40' W 091°08'2 2.5
2014-Nov-24 13:34N 29°41' W 091°11'3 2.7
2014-Nov-24 12:33N 29°40' W 091°14'0 0.0
2014-Nov-24 11:33N 29°40' W 091°14'0 0.0
2014-Nov-24 10:34N 29°40' W 091°14'0 0.0
2014-Nov-24 09:34N 29°40' W 091°14'0 0.0
2014-Nov-24 08:34N 29°40' W 091°14'0 0.0
2014-Nov-24 07:34N 29°40' W 091°14'0 0.0
2014-Nov-24 06:34N 29°40' W 091°14'2 1.9
2014-Nov-24 05:34N 29°41' W 091°12'3 3.5
2014-Nov-24 04:34N 29°40' W 091°08'5 4.5
2014-Nov-24 03:34N 29°38' W 091°04'6 5.5
2014-Nov-24 02:33N 29°36' W 090°58'20 3.2
2014-Nov-23 20:10N 29°34' W 090°35'4 5.4
2014-Nov-23 19:29N 29°34' W 090°31'35 0.8
2014-Nov-22 01:33N 29°55' W 089°59'2 2.3
2014-Nov-22 00:33N 29°57' W 090°00'0 0.4
2014-Nov-21 23:30N 29°57' W 090°01'0 0.0
2014-Nov-21 22:33N 29°57' W 090°01'3 2.3
2014-Nov-21 21:22N 29°55' W 089°58'7 0.7
2014-Nov-21 11:31N 29°50' W 090°03'0 0.0
2014-Nov-21 10:33N 29°50' W 090°03'0 0.0
2014-Nov-21 09:18N 29°50' W 090°03'0 0.0
2014-Nov-21 08:23N 29°50' W 090°03'7 3.8
2014-Nov-21 06:33N 29°55' W 089°58'2 2.1
2014-Nov-21 05:31N 29°56' W 089°60'2 2.2
2014-Nov-21 04:32N 29°55' W 089°58'1 0.4
2014-Nov-21 03:07N 29°55' W 089°59'0 0.5
2014-Nov-21 02:31N 29°54' W 089°59'0 0.0
2014-Nov-21 00:22N 29°54' W 089°59'6 0.7
2014-Nov-20 15:16N 29°50' W 090°03'  
2014-Nov-17 21:15N 29°34' W 090°32'4 5.3
2014-Nov-17 20:24N 29°35' W 090°37'23 4.0
2014-Nov-17 14:32N 29°37' W 091°03'4 4.4
2014-Nov-17 13:34N 29°39' W 091°08'4 3.7
2014-Nov-17 12:34N 29°41' W 091°11'1 1.2
2014-Nov-17 11:33N 29°41' W 091°13'2 1.5
2014-Nov-17 10:33N 29°40' W 091°14'2 1.7
2014-Nov-17 09:33N 29°39' W 091°16'5 5.1
2014-Nov-17 08:34N 29°39' W 091°21'5 5.1
2014-Nov-17 07:31N 29°40' W 091°27'5 5.6
2014-Nov-17 06:33N 29°43' W 091°33'9 1.0
2014-Nov-16 22:13N 29°39' W 091°24'5 7.1
2014-Nov-16 21:34N 29°39' W 091°18'4 4.1
2014-Nov-16 20:34N 29°40' W 091°14'0 0.0
2014-Nov-16 19:34N 29°40' W 091°14'  
Track history (hours):
 
Tides and Currents Weather Stations Pressure Air Temp Water Temp Dewpoint Dewpoint Depression Visibility Wind Speed Wind Dir Waves Ship Positions

MiSS Stacie

Owner: Crosby Marine Transportation LLC, Golden Meadow, LA. More information available from US FCC via Universal Licensing System and Coast Guard Vessel Documentation Center.

Last reported at 2014-Nov-26 19:30 UTC. Time now 2014-Nov-26 20:16 UTC.
Position N 29°35' W 090°36'.

Length 20 m; draft 2 m.

Type: Tug. MMSI: 367468640.

Date/timePositionNaut miles runAvg speedWind from/ knotsBaromVisibWave heightAir tempDewpointWater temp
2014-Nov-26 19:30N 29°35' W 090°36'4 4.7
2014-Nov-26 18:33N 29°36' W 090°41'18 4.3
2014-Nov-26 14:22N 29°37' W 091°02'4 5.1
2014-Nov-26 13:33N 29°38' W 091°06'2 2.5
2014-Nov-26 12:33N 29°40' W 091°08'0 0.1
2014-Nov-26 11:33N 29°40' W 091°08'2 2.4
2014-Nov-26 10:33N 29°41' W 091°11'3 2.8
2014-Nov-26 09:33N 29°40' W 091°14'0 0.1
2014-Nov-26 08:34N 29°40' W 091°14'3 2.7
2014-Nov-26 07:34N 29°39' W 091°17'5 4.5
2014-Nov-26 06:33N 29°39' W 091°22'7 5.2
2014-Nov-26 05:14N 29°41' W 091°29'4 5.7
2014-Nov-26 04:33N 29°43' W 091°33'12 1.2
2014-Nov-25 19:07N 29°38' W 091°21'4 8.0
2014-Nov-25 18:33N 29°39' W 091°16'2 2.0
2014-Nov-25 17:33N 29°40' W 091°14'0 0.0
2014-Nov-25 16:33N 29°40' W 091°14'0 0.0
2014-Nov-25 15:33N 29°40' W 091°14'0 0.0
2014-Nov-25 14:33N 29°40' W 091°14'0 0.0
2014-Nov-25 13:34N 29°40' W 091°14'0 0.0
2014-Nov-25 12:34N 29°40' W 091°14'0 0.0
2014-Nov-25 11:33N 29°40' W 091°14'0 0.0
2014-Nov-25 10:33N 29°40' W 091°14'0 0.0
2014-Nov-25 09:33N 29°40' W 091°14'0 0.0
2014-Nov-25 08:33N 29°40' W 091°14'0 0.0
2014-Nov-25 07:33N 29°40' W 091°14'0 0.0
2014-Nov-25 06:34N 29°40' W 091°14'2 1.8
2014-Nov-25 05:33N 29°39' W 091°16'4 4.4
2014-Nov-25 04:34N 29°38' W 091°21'6 5.9
2014-Nov-25 03:33N 29°40' W 091°27'5 4.6
2014-Nov-25 02:22N 29°43' W 091°33'9 2.0
2014-Nov-24 22:06N 29°39' W 091°24'4 7.5
2014-Nov-24 21:34N 29°38' W 091°19'5 5.0
2014-Nov-24 20:34N 29°40' W 091°14'5 4.9
2014-Nov-24 19:34N 29°40' W 091°08'0 0.0
2014-Nov-24 18:33N 29°40' W 091°08'0 0.0
2014-Nov-24 17:33N 29°40' W 091°08'0 0.0
2014-Nov-24 16:33N 29°40' W 091°08'0 0.0
2014-Nov-24 15:34N 29°40' W 091°08'0 0.0
2014-Nov-24 14:33N 29°40' W 091°08'2 2.5
2014-Nov-24 13:34N 29°41' W 091°11'3 2.7
2014-Nov-24 12:33N 29°40' W 091°14'0 0.0
2014-Nov-24 11:33N 29°40' W 091°14'0 0.0
2014-Nov-24 10:34N 29°40' W 091°14'0 0.0
2014-Nov-24 09:34N 29°40' W 091°14'0 0.0
2014-Nov-24 08:34N 29°40' W 091°14'0 0.0
2014-Nov-24 07:34N 29°40' W 091°14'0 0.0
2014-Nov-24 06:34N 29°40' W 091°14'2 1.9
2014-Nov-24 05:34N 29°41' W 091°12'3 3.5
2014-Nov-24 04:34N 29°40' W 091°08'5 4.5
2014-Nov-24 03:34N 29°38' W 091°04'6 5.5
2014-Nov-24 02:33N 29°36' W 090°58'20 3.2
2014-Nov-23 20:10N 29°34' W 090°35'4 5.4
2014-Nov-23 19:29N 29°34' W 090°31'35 0.8
2014-Nov-22 01:33N 29°55' W 089°59'2 2.3
2014-Nov-22 00:33N 29°57' W 090°00'0 0.4
2014-Nov-21 23:30N 29°57' W 090°01'0 0.0
2014-Nov-21 22:33N 29°57' W 090°01'3 2.3
2014-Nov-21 21:22N 29°55' W 089°58'7 0.7
2014-Nov-21 11:31N 29°50' W 090°03'0 0.0
2014-Nov-21 10:33N 29°50' W 090°03'0 0.0
2014-Nov-21 09:18N 29°50' W 090°03'0 0.0
2014-Nov-21 08:23N 29°50' W 090°03'7 3.8
2014-Nov-21 06:33N 29°55' W 089°58'2 2.1
2014-Nov-21 05:31N 29°56' W 089°60'2 2.2
2014-Nov-21 04:32N 29°55' W 089°58'1 0.4
2014-Nov-21 03:07N 29°55' W 089°59'0 0.5
2014-Nov-21 02:31N 29°54' W 089°59'0 0.0
2014-Nov-21 00:22N 29°54' W 089°59'6 0.7
2014-Nov-20 15:16N 29°50' W 090°03'  
2014-Nov-17 21:15N 29°34' W 090°32'4 5.3
2014-Nov-17 20:24N 29°35' W 090°37'23 4.0
2014-Nov-17 14:32N 29°37' W 091°03'4 4.4
2014-Nov-17 13:34N 29°39' W 091°08'4 3.7
2014-Nov-17 12:34N 29°41' W 091°11'1 1.2
2014-Nov-17 11:33N 29°41' W 091°13'2 1.5
2014-Nov-17 10:33N 29°40' W 091°14'2 1.7
2014-Nov-17 09:33N 29°39' W 091°16'5 5.1
2014-Nov-17 08:34N 29°39' W 091°21'5 5.1
2014-Nov-17 07:31N 29°40' W 091°27'5 5.6
2014-Nov-17 06:33N 29°43' W 091°33'9 1.0
2014-Nov-16 22:13N 29°39' W 091°24'5 7.1
2014-Nov-16 21:34N 29°39' W 091°18'4 4.1
2014-Nov-16 20:34N 29°40' W 091°14'0 0.0
2014-Nov-16 19:34N 29°40' W 091°14'  

Dump ship's entire track history